sensor_id;sensor_type;location;lat;lon;timestamp;temperature;humidity
13433;DHT22;6789;47.678;9.158;2023-12-04T00:03:03;-1.70;99.90
13433;DHT22;6789;47.678;9.158;2023-12-04T00:07:55;-1.70;99.90
13433;DHT22;6789;47.678;9.158;2023-12-04T00:12:47;-1.60;99.90
13433;DHT22;6789;47.678;9.158;2023-12-04T00:17:38;-1.60;99.90
13433;DHT22;6789;47.678;9.158;2023-12-04T00:22:32;-1.60;99.90
13433;DHT22;6789;47.678;9.158;2023-12-04T00:27:23;-1.70;99.90
13433;DHT22;6789;47.678;9.158;2023-12-04T00:32:18;-1.70;99.90
13433;DHT22;6789;47.678;9.158;2023-12-04T00:37:10;-1.70;99.90
13433;DHT22;6789;47.678;9.158;2023-12-04T00:42:02;-1.80;99.90
13433;DHT22;6789;47.678;9.158;2023-12-04T00:46:54;-1.90;99.90
13433;DHT22;6789;47.678;9.158;2023-12-04T00:51:45;-2.00;99.90
13433;DHT22;6789;47.678;9.158;2023-12-04T00:56:40;-2.10;99.90
13433;DHT22;6789;47.678;9.158;2023-12-04T01:01:33;-2.10;99.90
13433;DHT22;6789;47.678;9.158;2023-12-04T01:06:25;-2.10;99.90
13433;DHT22;6789;47.678;9.158;2023-12-04T01:11:17;-2.10;99.90
13433;DHT22;6789;47.678;9.158;2023-12-04T01:16:10;-2.20;99.90
13433;DHT22;6789;47.678;9.158;2023-12-04T01:21:02;-2.40;99.90
13433;DHT22;6789;47.678;9.158;2023-12-04T01:25:55;-2.50;99.90
13433;DHT22;6789;47.678;9.158;2023-12-04T01:30:47;-2.50;99.90
13433;DHT22;6789;47.678;9.158;2023-12-04T01:35:39;-2.50;99.90
13433;DHT22;6789;47.678;9.158;2023-12-04T01:40:31;-2.70;99.90
13433;DHT22;6789;47.678;9.158;2023-12-04T01:45:23;-2.70;99.90
13433;DHT22;6789;47.678;9.158;2023-12-04T01:50:15;-2.80;99.90
13433;DHT22;6789;47.678;9.158;2023-12-04T01:55:09;-2.80;99.90
13433;DHT22;6789;47.678;9.158;2023-12-04T02:00:02;-3.00;99.90
13433;DHT22;6789;47.678;9.158;2023-12-04T02:04:55;-3.00;99.90
13433;DHT22;6789;47.678;9.158;2023-12-04T02:09:49;-3.00;99.90
13433;DHT22;6789;47.678;9.158;2023-12-04T02:14:41;-3.00;99.90
13433;DHT22;6789;47.678;9.158;2023-12-04T02:19:34;-3.00;99.90
13433;DHT22;6789;47.678;9.158;2023-12-04T02:24:26;-2.90;99.90
13433;DHT22;6789;47.678;9.158;2023-12-04T02:29:31;-2.90;99.90
13433;DHT22;6789;47.678;9.158;2023-12-04T02:34:29;-3.00;99.90
13433;DHT22;6789;47.678;9.158;2023-12-04T02:39:25;-3.00;99.90
13433;DHT22;6789;47.678;9.158;2023-12-04T02:44:17;-2.90;99.90
13433;DHT22;6789;47.678;9.158;2023-12-04T02:49:09;-3.10;99.90
13433;DHT22;6789;47.678;9.158;2023-12-04T02:54:01;-3.10;99.90
13433;DHT22;6789;47.678;9.158;2023-12-04T02:58:53;-3.10;99.90
13433;DHT22;6789;47.678;9.158;2023-12-04T03:03:44;-3.10;99.90
13433;DHT22;6789;47.678;9.158;2023-12-04T03:08:36;-3.20;99.90
13433;DHT22;6789;47.678;9.158;2023-12-04T03:13:28;-3.10;99.90
13433;DHT22;6789;47.678;9.158;2023-12-04T03:18:21;-3.00;99.90
13433;DHT22;6789;47.678;9.158;2023-12-04T03:23:14;-3.20;99.90
13433;DHT22;6789;47.678;9.158;2023-12-04T03:28:06;-3.10;99.90
13433;DHT22;6789;47.678;9.158;2023-12-04T03:32:58;-3.10;99.90
13433;DHT22;6789;47.678;9.158;2023-12-04T03:37:49;-3.00;99.90
13433;DHT22;6789;47.678;9.158;2023-12-04T03:42:41;-3.00;99.90
13433;DHT22;6789;47.678;9.158;2023-12-04T03:47:33;-2.90;99.90
13433;DHT22;6789;47.678;9.158;2023-12-04T03:52:25;-2.90;99.90
13433;DHT22;6789;47.678;9.158;2023-12-04T03:57:18;-2.80;99.90
13433;DHT22;6789;47.678;9.158;2023-12-04T04:02:09;-2.80;99.90
13433;DHT22;6789;47.678;9.158;2023-12-04T04:07:01;-2.80;99.90
13433;DHT22;6789;47.678;9.158;2023-12-04T04:11:53;-2.80;99.90
13433;DHT22;6789;47.678;9.158;2023-12-04T04:16:45;-2.60;99.90
13433;DHT22;6789;47.678;9.158;2023-12-04T04:21:39;-2.50;99.90
13433;DHT22;6789;47.678;9.158;2023-12-04T04:26:32;-2.40;99.90
13433;DHT22;6789;47.678;9.158;2023-12-04T04:31:24;-2.50;99.90
13433;DHT22;6789;47.678;9.158;2023-12-04T04:36:16;-2.40;99.90
13433;DHT22;6789;47.678;9.158;2023-12-04T04:41:13;-2.40;99.90
13433;DHT22;6789;47.678;9.158;2023-12-04T04:46:06;-2.30;99.90
13433;DHT22;6789;47.678;9.158;2023-12-04T04:50:58;-2.30;99.90
13433;DHT22;6789;47.678;9.158;2023-12-04T04:55:50;-2.10;99.90
13433;DHT22;6789;47.678;9.158;2023-12-04T05:00:42;-2.20;99.90
13433;DHT22;6789;47.678;9.158;2023-12-04T05:05:48;-2.10;99.90
13433;DHT22;6789;47.678;9.158;2023-12-04T05:10:40;-2.10;99.90
13433;DHT22;6789;47.678;9.158;2023-12-04T05:15:32;-2.10;99.90
13433;DHT22;6789;47.678;9.158;2023-12-04T05:20:24;-2.00;99.90
13433;DHT22;6789;47.678;9.158;2023-12-04T05:25:16;-2.10;99.90
13433;DHT22;6789;47.678;9.158;2023-12-04T05:30:08;-2.10;99.90
13433;DHT22;6789;47.678;9.158;2023-12-04T05:35:00;-2.10;99.90
13433;DHT22;6789;47.678;9.158;2023-12-04T05:39:51;-2.00;99.90
13433;DHT22;6789;47.678;9.158;2023-12-04T05:44:43;-1.90;99.90
13433;DHT22;6789;47.678;9.158;2023-12-04T05:49:35;-2.00;99.90
13433;DHT22;6789;47.678;9.158;2023-12-04T05:54:27;-2.10;99.90
13433;DHT22;6789;47.678;9.158;2023-12-04T05:59:19;-2.00;99.90
13433;DHT22;6789;47.678;9.158;2023-12-04T06:04:10;-1.90;99.90
13433;DHT22;6789;47.678;9.158;2023-12-04T06:09:02;-1.80;99.90
13433;DHT22;6789;47.678;9.158;2023-12-04T06:13:54;-1.70;99.90
13433;DHT22;6789;47.678;9.158;2023-12-04T06:18:46;-1.60;99.90
13433;DHT22;6789;47.678;9.158;2023-12-04T06:23:38;-1.60;99.90
13433;DHT22;6789;47.678;9.158;2023-12-04T06:28:30;-1.50;99.90
13433;DHT22;6789;47.678;9.158;2023-12-04T06:33:22;-1.70;99.90
13433;DHT22;6789;47.678;9.158;2023-12-04T06:38:15;-1.70;99.90
13433;DHT22;6789;47.678;9.158;2023-12-04T06:43:10;-1.60;99.90
13433;DHT22;6789;47.678;9.158;2023-12-04T06:48:02;-1.70;99.90
13433;DHT22;6789;47.678;9.158;2023-12-04T06:52:54;-1.70;99.90
13433;DHT22;6789;47.678;9.158;2023-12-04T06:57:46;-1.70;99.90
13433;DHT22;6789;47.678;9.158;2023-12-04T07:02:38;-1.80;99.90
13433;DHT22;6789;47.678;9.158;2023-12-04T07:07:30;-1.70;99.90
13433;DHT22;6789;47.678;9.158;2023-12-04T07:12:22;-1.80;99.90
13433;DHT22;6789;47.678;9.158;2023-12-04T07:17:13;-1.80;99.90
13433;DHT22;6789;47.678;9.158;2023-12-04T07:22:05;-1.80;99.90
13433;DHT22;6789;47.678;9.158;2023-12-04T07:26:57;-1.80;99.90
13433;DHT22;6789;47.678;9.158;2023-12-04T07:31:49;-1.90;99.90
13433;DHT22;6789;47.678;9.158;2023-12-04T07:36:40;-1.80;99.90
13433;DHT22;6789;47.678;9.158;2023-12-04T07:41:32;-1.80;99.90
13433;DHT22;6789;47.678;9.158;2023-12-04T07:46:24;-1.80;99.90
13433;DHT22;6789;47.678;9.158;2023-12-04T07:51:17;-1.90;99.90
13433;DHT22;6789;47.678;9.158;2023-12-04T07:56:12;-1.90;99.90
13433;DHT22;6789;47.678;9.158;2023-12-04T08:01:04;-1.90;99.90
13433;DHT22;6789;47.678;9.158;2023-12-04T08:05:57;-1.90;99.90
13433;DHT22;6789;47.678;9.158;2023-12-04T08:10:50;-1.90;99.90
13433;DHT22;6789;47.678;9.158;2023-12-04T08:15:42;-1.80;99.90
13433;DHT22;6789;47.678;9.158;2023-12-04T08:20:35;-1.70;99.90
13433;DHT22;6789;47.678;9.158;2023-12-04T08:25:31;-1.60;99.90
13433;DHT22;6789;47.678;9.158;2023-12-04T08:30:23;-1.60;99.90
13433;DHT22;6789;47.678;9.158;2023-12-04T08:35:15;-1.70;99.90
13433;DHT22;6789;47.678;9.158;2023-12-04T08:40:07;-1.70;99.90
13433;DHT22;6789;47.678;9.158;2023-12-04T08:45:00;-1.80;99.90
13433;DHT22;6789;47.678;9.158;2023-12-04T08:49:51;-1.70;99.90
13433;DHT22;6789;47.678;9.158;2023-12-04T08:54:43;-1.70;99.90
13433;DHT22;6789;47.678;9.158;2023-12-04T08:59:35;-1.30;99.90
13433;DHT22;6789;47.678;9.158;2023-12-04T09:04:27;-1.20;99.90
13433;DHT22;6789;47.678;9.158;2023-12-04T09:09:19;-1.10;99.90
13433;DHT22;6789;47.678;9.158;2023-12-04T09:14:11;-0.90;99.90
13433;DHT22;6789;47.678;9.158;2023-12-04T09:19:03;-0.90;99.90
13433;DHT22;6789;47.678;9.158;2023-12-04T09:23:55;-1.00;99.90
13433;DHT22;6789;47.678;9.158;2023-12-04T09:28:47;-1.00;99.90
13433;DHT22;6789;47.678;9.158;2023-12-04T09:33:40;-0.80;99.90
13433;DHT22;6789;47.678;9.158;2023-12-04T09:38:32;-0.70;99.90
13433;DHT22;6789;47.678;9.158;2023-12-04T09:43:26;-0.50;99.90
13433;DHT22;6789;47.678;9.158;2023-12-04T09:48:24;-0.50;99.90
13433;DHT22;6789;47.678;9.158;2023-12-04T09:53:17;-0.30;99.90
13433;DHT22;6789;47.678;9.158;2023-12-04T09:58:11;-0.30;99.90
13433;DHT22;6789;47.678;9.158;2023-12-04T10:03:06;-0.10;99.90
13433;DHT22;6789;47.678;9.158;2023-12-04T10:07:58;-0.10;99.90
13433;DHT22;6789;47.678;9.158;2023-12-04T10:12:51;-0.20;99.90
13433;DHT22;6789;47.678;9.158;2023-12-04T10:17:43;-0.20;99.90
13433;DHT22;6789;47.678;9.158;2023-12-04T10:22:35;-0.40;99.90
13433;DHT22;6789;47.678;9.158;2023-12-04T10:27:27;-0.40;99.90
13433;DHT22;6789;47.678;9.158;2023-12-04T10:32:19;-0.40;99.90
13433;DHT22;6789;47.678;9.158;2023-12-04T10:37:12;-0.40;99.90
13433;DHT22;6789;47.678;9.158;2023-12-04T10:42:05;-0.30;99.90
13433;DHT22;6789;47.678;9.158;2023-12-04T10:46:59;-0.40;99.90
13433;DHT22;6789;47.678;9.158;2023-12-04T10:51:55;-0.30;99.90
13433;DHT22;6789;47.678;9.158;2023-12-04T10:56:49;-0.10;99.90
13433;DHT22;6789;47.678;9.158;2023-12-04T11:01:44;0.30;99.90
13433;DHT22;6789;47.678;9.158;2023-12-04T11:06:39;0.50;99.90
13433;DHT22;6789;47.678;9.158;2023-12-04T11:11:35;0.70;99.90
13433;DHT22;6789;47.678;9.158;2023-12-04T11:16:51;0.80;99.90
13433;DHT22;6789;47.678;9.158;2023-12-04T11:21:49;0.90;99.90
13433;DHT22;6789;47.678;9.158;2023-12-04T11:26:42;1.00;99.90
13433;DHT22;6789;47.678;9.158;2023-12-04T11:31:35;0.90;99.90
13433;DHT22;6789;47.678;9.158;2023-12-04T11:36:28;1.00;99.90
13433;DHT22;6789;47.678;9.158;2023-12-04T11:41:24;0.90;99.90
13433;DHT22;6789;47.678;9.158;2023-12-04T11:46:23;1.00;99.90
13433;DHT22;6789;47.678;9.158;2023-12-04T11:56:30;2.10;99.90
13433;DHT22;6789;47.678;9.158;2023-12-04T12:01:22;2.30;99.90
13433;DHT22;6789;47.678;9.158;2023-12-04T12:06:14;2.50;99.90
13433;DHT22;6789;47.678;9.158;2023-12-04T12:11:07;2.20;99.90
13433;DHT22;6789;47.678;9.158;2023-12-04T12:15:59;2.40;99.90
13433;DHT22;6789;47.678;9.158;2023-12-04T12:20:51;2.30;99.90
13433;DHT22;6789;47.678;9.158;2023-12-04T12:25:42;2.00;99.90
13433;DHT22;6789;47.678;9.158;2023-12-04T12:30:34;1.40;99.90
13433;DHT22;6789;47.678;9.158;2023-12-04T12:35:26;1.50;99.90
13433;DHT22;6789;47.678;9.158;2023-12-04T12:40:21;1.50;99.90
13433;DHT22;6789;47.678;9.158;2023-12-04T12:45:13;1.70;99.90
13433;DHT22;6789;47.678;9.158;2023-12-04T12:50:08;1.90;99.90
13433;DHT22;6789;47.678;9.158;2023-12-04T12:55:02;2.30;99.90
13433;DHT22;6789;47.678;9.158;2023-12-04T12:59:54;2.40;99.90
13433;DHT22;6789;47.678;9.158;2023-12-04T13:04:50;2.30;99.90
13433;DHT22;6789;47.678;9.158;2023-12-04T13:09:42;2.40;99.90
13433;DHT22;6789;47.678;9.158;2023-12-04T13:14:35;2.20;99.90
13433;DHT22;6789;47.678;9.158;2023-12-04T13:19:28;2.00;99.90
13433;DHT22;6789;47.678;9.158;2023-12-04T13:24:19;1.90;99.90
13433;DHT22;6789;47.678;9.158;2023-12-04T13:29:12;1.90;99.90
13433;DHT22;6789;47.678;9.158;2023-12-04T13:34:10;1.80;99.90
13433;DHT22;6789;47.678;9.158;2023-12-04T13:39:03;1.70;99.90
13433;DHT22;6789;47.678;9.158;2023-12-04T13:44:07;1.50;99.90
13433;DHT22;6789;47.678;9.158;2023-12-04T13:48:59;1.50;99.90
13433;DHT22;6789;47.678;9.158;2023-12-04T13:53:51;1.40;99.90
13433;DHT22;6789;47.678;9.158;2023-12-04T13:58:52;1.30;99.90
13433;DHT22;6789;47.678;9.158;2023-12-04T14:03:50;1.20;99.90
13433;DHT22;6789;47.678;9.158;2023-12-04T14:08:44;1.20;99.90
13433;DHT22;6789;47.678;9.158;2023-12-04T14:13:37;1.10;99.90
13433;DHT22;6789;47.678;9.158;2023-12-04T14:18:30;1.30;99.90
13433;DHT22;6789;47.678;9.158;2023-12-04T14:23:23;1.30;99.90
13433;DHT22;6789;47.678;9.158;2023-12-04T14:28:15;1.20;99.90
13433;DHT22;6789;47.678;9.158;2023-12-04T14:33:16;1.00;99.90
13433;DHT22;6789;47.678;9.158;2023-12-04T14:38:08;1.10;99.90
13433;DHT22;6789;47.678;9.158;2023-12-04T14:43:00;1.10;99.90
13433;DHT22;6789;47.678;9.158;2023-12-04T14:47:52;1.10;99.90
13433;DHT22;6789;47.678;9.158;2023-12-04T14:52:47;1.00;99.90
13433;DHT22;6789;47.678;9.158;2023-12-04T14:57:42;1.00;99.90
13433;DHT22;6789;47.678;9.158;2023-12-04T15:02:55;1.00;99.90
13433;DHT22;6789;47.678;9.158;2023-12-04T15:08:05;0.90;99.90
13433;DHT22;6789;47.678;9.158;2023-12-04T15:13:00;0.90;99.90
13433;DHT22;6789;47.678;9.158;2023-12-04T15:17:52;0.90;99.90
13433;DHT22;6789;47.678;9.158;2023-12-04T15:22:47;0.90;99.90
13433;DHT22;6789;47.678;9.158;2023-12-04T15:27:39;0.70;99.90
13433;DHT22;6789;47.678;9.158;2023-12-04T15:32:32;0.70;99.90
13433;DHT22;6789;47.678;9.158;2023-12-04T15:37:24;0.50;99.90
13433;DHT22;6789;47.678;9.158;2023-12-04T15:42:15;0.60;99.90
13433;DHT22;6789;47.678;9.158;2023-12-04T15:47:07;0.60;99.90
13433;DHT22;6789;47.678;9.158;2023-12-04T15:51:59;0.70;99.90
13433;DHT22;6789;47.678;9.158;2023-12-04T15:56:50;0.60;99.90
13433;DHT22;6789;47.678;9.158;2023-12-04T16:01:42;0.60;99.90
13433;DHT22;6789;47.678;9.158;2023-12-04T16:06:34;0.70;99.90
13433;DHT22;6789;47.678;9.158;2023-12-04T16:11:28;0.60;99.90
13433;DHT22;6789;47.678;9.158;2023-12-04T16:16:20;0.60;99.90
13433;DHT22;6789;47.678;9.158;2023-12-04T16:21:13;0.60;99.90
13433;DHT22;6789;47.678;9.158;2023-12-04T16:26:06;0.60;99.90
13433;DHT22;6789;47.678;9.158;2023-12-04T16:30:58;0.60;99.90
13433;DHT22;6789;47.678;9.158;2023-12-04T16:35:50;0.50;99.90
13433;DHT22;6789;47.678;9.158;2023-12-04T16:40:42;0.50;99.90
13433;DHT22;6789;47.678;9.158;2023-12-04T16:45:33;0.50;99.90
13433;DHT22;6789;47.678;9.158;2023-12-04T16:50:25;0.50;99.90
13433;DHT22;6789;47.678;9.158;2023-12-04T16:55:18;0.50;99.90
13433;DHT22;6789;47.678;9.158;2023-12-04T17:00:10;0.50;99.90
13433;DHT22;6789;47.678;9.158;2023-12-04T17:05:03;0.60;99.90
13433;DHT22;6789;47.678;9.158;2023-12-04T17:09:57;0.60;99.90
13433;DHT22;6789;47.678;9.158;2023-12-04T17:14:48;0.60;99.90
13433;DHT22;6789;47.678;9.158;2023-12-04T17:19:40;0.60;99.90
13433;DHT22;6789;47.678;9.158;2023-12-04T17:24:32;0.60;99.90
13433;DHT22;6789;47.678;9.158;2023-12-04T17:29:24;0.60;99.90
13433;DHT22;6789;47.678;9.158;2023-12-04T17:34:17;0.60;99.90
13433;DHT22;6789;47.678;9.158;2023-12-04T17:39:11;0.60;99.90
13433;DHT22;6789;47.678;9.158;2023-12-04T17:44:08;0.70;99.90
13433;DHT22;6789;47.678;9.158;2023-12-04T17:49:00;0.70;99.90
13433;DHT22;6789;47.678;9.158;2023-12-04T17:53:52;0.60;99.90
13433;DHT22;6789;47.678;9.158;2023-12-04T17:58:43;0.70;99.90
13433;DHT22;6789;47.678;9.158;2023-12-04T18:03:35;0.80;99.90
13433;DHT22;6789;47.678;9.158;2023-12-04T18:08:27;0.80;99.90
13433;DHT22;6789;47.678;9.158;2023-12-04T18:13:20;0.80;99.90
13433;DHT22;6789;47.678;9.158;2023-12-04T18:18:12;0.90;99.90
13433;DHT22;6789;47.678;9.158;2023-12-04T18:23:04;0.90;99.90
13433;DHT22;6789;47.678;9.158;2023-12-04T18:27:56;0.80;99.90
13433;DHT22;6789;47.678;9.158;2023-12-04T18:32:50;0.80;99.90
13433;DHT22;6789;47.678;9.158;2023-12-04T18:38:00;0.70;99.90
13433;DHT22;6789;47.678;9.158;2023-12-04T18:42:57;0.60;99.90
13433;DHT22;6789;47.678;9.158;2023-12-04T18:47:56;0.50;99.90
13433;DHT22;6789;47.678;9.158;2023-12-04T18:52:52;0.50;99.90
13433;DHT22;6789;47.678;9.158;2023-12-04T18:57:45;0.40;99.90
13433;DHT22;6789;47.678;9.158;2023-12-04T19:02:36;0.40;99.90
13433;DHT22;6789;47.678;9.158;2023-12-04T19:07:28;0.40;99.90
13433;DHT22;6789;47.678;9.158;2023-12-04T19:12:20;0.40;99.90
13433;DHT22;6789;47.678;9.158;2023-12-04T19:17:12;0.40;99.90
13433;DHT22;6789;47.678;9.158;2023-12-04T19:22:04;0.40;99.90
13433;DHT22;6789;47.678;9.158;2023-12-04T19:26:55;0.30;99.90
13433;DHT22;6789;47.678;9.158;2023-12-04T19:31:48;0.20;99.90
13433;DHT22;6789;47.678;9.158;2023-12-04T19:36:40;0.00;99.90
13433;DHT22;6789;47.678;9.158;2023-12-04T19:41:31;-0.10;99.90
13433;DHT22;6789;47.678;9.158;2023-12-04T19:46:23;-0.10;99.90
13433;DHT22;6789;47.678;9.158;2023-12-04T19:51:15;-0.20;99.90
13433;DHT22;6789;47.678;9.158;2023-12-04T19:56:10;-0.30;99.90
13433;DHT22;6789;47.678;9.158;2023-12-04T20:01:02;-0.40;99.90
13433;DHT22;6789;47.678;9.158;2023-12-04T20:05:54;-0.30;99.90
13433;DHT22;6789;47.678;9.158;2023-12-04T20:10:47;-0.30;99.90
13433;DHT22;6789;47.678;9.158;2023-12-04T20:15:46;-0.30;99.90
13433;DHT22;6789;47.678;9.158;2023-12-04T20:20:38;-0.30;99.90
13433;DHT22;6789;47.678;9.158;2023-12-04T20:25:30;-0.20;99.90
13433;DHT22;6789;47.678;9.158;2023-12-04T20:30:22;-0.20;99.90
13433;DHT22;6789;47.678;9.158;2023-12-04T20:35:13;-0.10;99.90
13433;DHT22;6789;47.678;9.158;2023-12-04T20:40:06;0.00;99.90
13433;DHT22;6789;47.678;9.158;2023-12-04T20:44:59;0.10;99.90
13433;DHT22;6789;47.678;9.158;2023-12-04T20:49:51;0.10;99.90
13433;DHT22;6789;47.678;9.158;2023-12-04T20:54:43;0.10;99.90
13433;DHT22;6789;47.678;9.158;2023-12-04T20:59:34;-0.30;99.90
13433;DHT22;6789;47.678;9.158;2023-12-04T21:04:26;-0.20;99.90
13433;DHT22;6789;47.678;9.158;2023-12-04T21:09:18;0.00;99.90
13433;DHT22;6789;47.678;9.158;2023-12-04T21:14:10;0.10;99.90
13433;DHT22;6789;47.678;9.158;2023-12-04T21:19:02;0.20;99.90
13433;DHT22;6789;47.678;9.158;2023-12-04T21:23:53;0.40;99.90
13433;DHT22;6789;47.678;9.158;2023-12-04T21:28:46;0.50;99.90
13433;DHT22;6789;47.678;9.158;2023-12-04T21:33:37;0.60;99.90
13433;DHT22;6789;47.678;9.158;2023-12-04T21:38:29;0.60;99.90
13433;DHT22;6789;47.678;9.158;2023-12-04T21:43:21;0.60;99.90
13433;DHT22;6789;47.678;9.158;2023-12-04T21:48:13;0.50;99.90
13433;DHT22;6789;47.678;9.158;2023-12-04T21:53:05;0.70;99.90
13433;DHT22;6789;47.678;9.158;2023-12-04T21:57:57;0.90;99.90
13433;DHT22;6789;47.678;9.158;2023-12-04T22:02:49;0.90;99.90
13433;DHT22;6789;47.678;9.158;2023-12-04T22:07:41;0.80;99.90
13433;DHT22;6789;47.678;9.158;2023-12-04T22:12:32;0.80;99.90
13433;DHT22;6789;47.678;9.158;2023-12-04T22:17:24;1.00;99.90
13433;DHT22;6789;47.678;9.158;2023-12-04T22:22:16;1.00;99.90
13433;DHT22;6789;47.678;9.158;2023-12-04T22:27:08;0.90;99.90
13433;DHT22;6789;47.678;9.158;2023-12-04T22:31:59;0.80;99.90
13433;DHT22;6789;47.678;9.158;2023-12-04T22:36:52;0.80;99.90
13433;DHT22;6789;47.678;9.158;2023-12-04T22:41:43;0.80;99.90
13433;DHT22;6789;47.678;9.158;2023-12-04T22:46:36;0.80;99.90
13433;DHT22;6789;47.678;9.158;2023-12-04T22:51:28;0.90;99.90
13433;DHT22;6789;47.678;9.158;2023-12-04T22:56:21;0.90;99.90
13433;DHT22;6789;47.678;9.158;2023-12-04T23:01:14;0.90;99.90
13433;DHT22;6789;47.678;9.158;2023-12-04T23:06:08;0.80;99.90
13433;DHT22;6789;47.678;9.158;2023-12-04T23:16:21;0.80;99.90
13433;DHT22;6789;47.678;9.158;2023-12-04T23:21:13;0.80;99.90
13433;DHT22;6789;47.678;9.158;2023-12-04T23:26:05;0.80;99.90
13433;DHT22;6789;47.678;9.158;2023-12-04T23:30:57;1.00;99.90
13433;DHT22;6789;47.678;9.158;2023-12-04T23:35:50;0.90;99.90
13433;DHT22;6789;47.678;9.158;2023-12-04T23:40:43;0.90;99.90
13433;DHT22;6789;47.678;9.158;2023-12-04T23:45:35;1.00;99.90
13433;DHT22;6789;47.678;9.158;2023-12-04T23:50:40;1.00;99.90
13433;DHT22;6789;47.678;9.158;2023-12-04T23:55:46;1.10;99.90
